Time;durP1;ratioP1;P1;durP2;ratioP2;P2;SDS_P1;SDS_P2;PMS_P1;PMS_P2;Temp;Humidity;BMP_temperature;BMP_pressure;BME280_temperature;BME280_humidity;BME280_pressure;Samples;Min_cycle;Max_cycle;Signal;HPM_P1;HPM_P2
2023/03/08 00:02:12;;;;;;;22.38;12.95;;;;;;;0.57;100.00;100038.22;5030630;28;20021;-66
2023/03/08 00:04:38;;;;;;;21.25;13.20;;;;;;;0.57;100.00;100033.09;5031261;28;20033;-66
2023/03/08 00:07:03;;;;;;;24.98;14.48;;;;;;;0.57;100.00;100038.22;5031918;28;20438;-66
2023/03/08 00:09:28;;;;;;;22.90;12.88;;;;;;;0.62;100.00;100044.47;5030634;28;20033;-66
2023/03/08 00:11:53;;;;;;;21.27;12.82;;;;;;;0.64;100.00;100037.75;5009471;28;20734;-67
2023/03/08 00:14:21;;;;;;;21.98;14.10;;;;;;;0.61;100.00;100040.13;5029773;28;20017;-66
2023/03/08 00:16:47;;;;;;;21.30;13.23;;;;;;;0.62;100.00;100039.31;5032208;28;20144;-66
2023/03/08 00:19:13;;;;;;;23.10;13.93;;;;;;;0.62;100.00;100039.31;5030727;28;20117;-66
2023/03/08 00:21:38;;;;;;;24.17;14.07;;;;;;;0.61;100.00;100032.44;5028854;28;20029;-66
2023/03/08 00:24:04;;;;;;;25.40;14.10;;;;;;;0.59;100.00;100031.50;5030194;28;20408;-66
2023/03/08 00:26:29;;;;;;;25.20;14.40;;;;;;;0.59;100.00;100032.34;5030765;28;20018;-66
2023/03/08 00:28:54;;;;;;;24.30;13.82;;;;;;;0.62;100.00;100042.78;5032074;28;20112;-66
2023/03/08 00:31:20;;;;;;;24.67;14.63;;;;;;;0.61;100.00;100055.50;5030467;28;20056;-66
2023/03/08 00:33:45;;;;;;;24.90;13.75;;;;;;;0.59;100.00;100046.88;5031608;28;20017;-66
2023/03/08 00:36:15;;;;;;;24.25;14.25;;;;;;;0.60;100.00;100035.81;5030758;28;20089;-66
2023/03/08 00:38:41;;;;;;;25.38;14.35;;;;;;;0.62;100.00;100031.63;5031521;28;20381;-66
2023/03/08 00:41:07;;;;;;;23.52;14.10;;;;;;;0.63;100.00;100038.53;5029700;28;20029;-66
2023/03/08 00:43:32;;;;;;;25.48;14.57;;;;;;;0.63;100.00;100034.28;5030670;28;20033;-66
2023/03/08 00:45:58;;;;;;;23.33;14.40;;;;;;;0.63;100.00;100038.53;5029280;28;20045;-66
2023/03/08 00:48:23;;;;;;;24.20;14.55;;;;;;;0.63;100.00;100038.53;5029502;28;20044;-66
2023/03/08 00:50:48;;;;;;;26.08;14.60;;;;;;;0.63;100.00;100033.41;5029848;28;20060;-66
2023/03/08 00:53:14;;;;;;;22.08;13.88;;;;;;;0.62;100.00;100031.63;5029080;28;20033;-66
2023/03/08 00:55:51;;;;;;;24.65;14.77;;;;;;;0.60;100.00;100029.00;5029898;28;20112;-66
2023/03/08 00:58:17;;;;;;;24.52;14.50;;;;;;;0.60;100.00;100023.00;5029350;28;20029;-66
2023/03/08 01:00:43;;;;;;;25.90;14.70;;;;;;;0.60;100.00;100023.88;5027401;28;20037;-66
2023/03/08 01:03:08;;;;;;;27.83;15.73;;;;;;;0.60;100.00;100020.44;5030044;28;20033;-66
2023/03/08 01:05:38;;;;;;;27.98;15.30;;;;;;;0.58;100.00;100025.50;5028524;28;20055;-66
2023/03/08 01:08:04;;;;;;;27.88;15.80;;;;;;;0.55;100.00;100024.44;5029498;28;20025;-66
2023/03/08 01:10:29;;;;;;;24.83;14.90;;;;;;;0.49;100.00;100018.22;5012262;28;20041;-66
2023/03/08 01:12:55;;;;;;;26.17;15.38;;;;;;;0.46;100.00;100010.34;5028553;28;20079;-66
2023/03/08 01:15:20;;;;;;;27.20;15.25;;;;;;;0.47;100.00;100006.13;5026406;28;20029;-66
2023/03/08 01:17:45;;;;;;;26.05;15.35;;;;;;;0.46;100.00;100010.34;5028272;28;20487;-66
2023/03/08 01:20:11;;;;;;;27.73;15.00;;;;;;;0.46;100.00;100000.09;5029641;28;20037;-66
2023/03/08 01:22:36;;;;;;;30.95;16.45;;;;;;;0.43;100.00;99989.69;5010922;28;20448;-66
2023/03/08 01:25:02;;;;;;;32.17;16.52;;;;;;;0.44;100.00;99986.34;5028838;28;20103;-66
2023/03/08 01:27:27;;;;;;;32.50;16.20;;;;;;;0.43;100.00;99982.00;5030009;28;20068;-66
2023/03/08 01:29:52;;;;;;;32.47;16.88;;;;;;;0.42;100.00;99977.72;5029641;28;20382;-66
2023/03/08 01:32:18;;;;;;;31.95;16.63;;;;;;;0.42;100.00;99975.16;5028351;28;20036;-66
2023/03/08 01:34:43;;;;;;;32.95;17.55;;;;;;;0.44;100.00;99970.97;5029940;28;20061;-66
2023/03/08 01:37:08;;;;;;;32.78;16.77;;;;;;;0.46;100.00;99968.47;5030539;28;20025;-66
2023/03/08 01:39:34;;;;;;;31.90;16.55;;;;;;;0.45;100.00;99962.47;5028497;28;20037;-66
2023/03/08 01:42:06;;;;;;;32.30;17.63;;;;;;;0.46;100.00;99958.22;5027064;28;20484;-66
2023/03/08 01:44:52;;;;;;;37.28;17.17;;;;;;;0.47;100.00;99965.13;5029084;28;20404;-66
2023/03/08 01:47:26;;;;;;;36.42;18.00;;;;;;;0.46;100.00;99959.09;5028191;28;20488;-66
2023/03/08 01:49:55;;;;;;;38.13;17.10;;;;;;;0.47;100.00;99950.59;5028609;28;20033;-66
2023/03/08 01:52:29;;;;;;;36.25;17.70;;;;;;;0.49;100.00;99953.25;5025395;28;20319;-66
2023/03/08 01:54:57;;;;;;;38.00;17.75;;;;;;;0.48;100.00;99949.81;5029458;28;20249;-66
2023/03/08 01:57:27;;;;;;;38.88;18.40;;;;;;;0.50;100.00;99937.94;5028895;28;20104;-66
2023/03/08 01:59:55;;;;;;;39.38;17.60;;;;;;;0.50;100.00;99945.63;5011607;28;20040;-66
2023/03/08 02:02:29;;;;;;;39.92;17.48;;;;;;;0.52;100.00;99949.16;5011241;28;20478;-66
2023/03/08 02:04:54;;;;;;;35.58;17.33;;;;;;;0.56;100.00;99939.06;5010643;28;20179;-66
2023/03/08 02:07:20;;;;;;;37.35;17.42;;;;;;;0.58;100.00;99945.13;5030200;28;20540;-66
2023/03/08 02:09:46;;;;;;;41.22;18.75;;;;;;;0.61;100.00;99937.59;5029608;28;20025;-66
2023/03/08 02:12:13;;;;;;;39.38;18.38;;;;;;;0.64;100.00;99930.94;5027945;28;20034;-66
2023/03/08 02:14:41;;;;;;;38.35;18.42;;;;;;;0.66;100.00;99931.00;5027078;28;20037;-66
2023/03/08 02:17:06;;;;;;;39.28;18.35;;;;;;;0.66;100.00;99916.50;5029089;28;20090;-66
2023/03/08 02:19:47;;;;;;;38.63;18.58;;;;;;;0.65;100.00;99919.00;5027978;28;20107;-66
2023/03/08 02:22:14;;;;;;;37.15;18.10;;;;;;;0.64;100.00;99912.13;5011158;28;20034;-66
2023/03/08 02:24:40;;;;;;;40.17;18.42;;;;;;;0.63;100.00;99900.97;5026502;28;20064;-66
2023/03/08 02:27:11;;;;;;;38.90;17.85;;;;;;;0.64;100.00;99901.88;5029822;28;20060;-66
2023/03/08 02:29:37;;;;;;;38.17;17.67;;;;;;;0.62;100.00;99899.25;5030038;28;20528;-66
2023/03/08 02:32:03;;;;;;;41.50;18.33;;;;;;;0.63;100.00;99902.66;5042081;28;20046;-66
2023/03/08 02:34:28;;;;;;;38.40;16.77;;;;;;;0.62;100.00;99891.53;5051591;28;20025;-66
2023/03/08 02:36:53;;;;;;;40.03;17.63;;;;;;;0.62;100.00;99883.84;5053716;28;20036;-66
2023/03/08 02:39:18;;;;;;;37.55;17.17;;;;;;;0.62;100.00;99893.22;5039983;28;20064;-66
2023/03/08 02:41:44;;;;;;;40.28;18.38;;;;;;;0.60;100.00;99885.44;5015943;28;20044;-66
2023/03/08 02:44:09;;;;;;;38.25;17.52;;;;;;;0.59;100.00;99880.25;5031121;28;20516;-66
2023/03/08 02:46:35;;;;;;;38.70;18.13;;;;;;;0.57;100.00;99874.19;5030920;28;20054;-66
2023/03/08 02:49:00;;;;;;;40.65;18.02;;;;;;;0.55;100.00;99886.94;5032405;28;20500;-66
2023/03/08 02:51:25;;;;;;;39.33;17.58;;;;;;;0.56;100.00;99886.09;5011220;28;20039;-66
2023/03/08 02:53:50;;;;;;;38.05;17.95;;;;;;;0.55;100.00;99886.94;5031345;28;20029;-66
2023/03/08 02:56:16;;;;;;;37.38;17.67;;;;;;;0.55;100.00;99886.03;5032318;28;20037;-66
2023/03/08 02:58:41;;;;;;;40.75;18.30;;;;;;;0.53;100.00;99873.16;5032507;28;20399;-66
2023/03/08 03:01:13;;;;;;;43.50;18.33;;;;;;;0.54;100.00;99868.88;5032256;28;20029;-66
2023/03/08 03:03:40;;;;;;;37.08;17.67;;;;;;;0.54;100.00;99869.78;5031968;28;20033;-66
2023/03/08 03:06:16;;;;;;;40.05;17.15;;;;;;;0.54;100.00;99874.91;5031570;28;20104;-66
2023/03/08 03:08:41;;;;;;;37.05;16.58;;;;;;;0.58;100.00;99870.78;5031775;28;20029;-66
2023/03/08 03:11:17;;;;;;;37.22;17.05;;;;;;;0.62;100.00;99865.00;5031542;28;20040;-66
2023/03/08 03:13:43;;;;;;;37.33;16.83;;;;;;;0.64;100.00;99850.59;5029259;28;20408;-66
2023/03/08 03:16:14;;;;;;;38.05;16.55;;;;;;;0.65;100.00;99844.66;5031915;28;20035;-66
2023/03/08 03:18:40;;;;;;;36.78;16.88;;;;;;;0.64;100.00;99854.03;5031885;28;20041;-66
2023/03/08 03:21:09;;;;;;;38.30;16.42;;;;;;;0.65;100.00;99842.09;5028927;28;20021;-66
2023/03/08 03:23:34;;;;;;;34.35;16.35;;;;;;;0.66;100.00;99839.59;5032204;28;20032;-66
2023/03/08 03:26:22;;;;;;;35.72;16.23;;;;;;;0.68;100.00;99842.22;5030943;28;20022;-66
2023/03/08 03:28:48;;;;;;;34.22;16.17;;;;;;;0.72;100.00;99836.44;5031449;28;20037;-66
2023/03/08 03:31:16;;;;;;;37.17;15.85;;;;;;;0.76;100.00;99822.09;5032081;28;20393;-66
2023/03/08 03:33:43;;;;;;;35.38;16.40;;;;;;;0.81;100.00;99816.38;5030702;28;20484;-66
2023/03/08 03:36:11;;;;;;;36.80;17.73;;;;;;;0.84;100.00;99808.81;5013794;28;20029;-66
2023/03/08 03:38:36;;;;;;;36.13;16.60;;;;;;;0.86;100.00;99798.63;5031426;28;20084;-66
2023/03/08 03:41:21;;;;;;;34.17;16.90;;;;;;;0.86;100.00;99793.50;5029721;28;20575;-66
2023/03/08 03:43:48;;;;;;;34.70;15.85;;;;;;;0.84;100.00;99796.00;5031432;28;20032;-66
2023/03/08 03:46:16;;;;;;;34.05;15.43;;;;;;;0.85;100.00;99796.84;5030159;28;20049;-66
2023/03/08 03:48:42;;;;;;;35.78;17.13;;;;;;;0.86;100.00;99796.94;5027903;28;20029;-66
2023/03/08 03:51:13;;;;;;;35.33;16.30;;;;;;;0.85;100.00;99790.06;5029538;28;20467;-66
2023/03/08 03:53:39;;;;;;;35.53;16.33;;;;;;;0.82;100.00;99800.16;5030351;28;20025;-66
2023/03/08 03:56:16;;;;;;;34.35;16.25;;;;;;;0.78;100.00;99797.38;5030578;28;20148;-66
2023/03/08 03:58:41;;;;;;;36.13;15.48;;;;;;;0.77;100.00;99787.94;5031306;28;20029;-66
2023/03/08 04:01:14;;;;;;;33.70;16.83;;;;;;;0.73;100.00;99783.50;5031395;28;20042;-66
2023/03/08 04:03:39;;;;;;;37.72;18.20;;;;;;;0.68;100.00;99783.25;5031496;28;20034;-66
2023/03/08 04:06:11;;;;;;;38.55;18.02;;;;;;;0.66;100.00;99782.31;5028492;28;20021;-66
2023/03/08 04:08:41;;;;;;;37.65;17.38;;;;;;;0.60;100.00;99776.94;5013031;28;20021;-66
2023/03/08 04:11:08;;;;;;;40.03;19.10;;;;;;;0.58;100.00;99770.81;5029314;28;20029;-66
2023/03/08 04:13:35;;;;;;;35.45;17.20;;;;;;;0.57;100.00;99776.78;5030739;28;20426;-66
2023/03/08 04:16:07;;;;;;;37.08;17.27;;;;;;;0.55;100.00;99768.13;5031257;28;20168;-66
2023/03/08 04:18:33;;;;;;;35.28;17.63;;;;;;;0.54;100.00;99762.13;5030622;28;20021;-66
2023/03/08 04:20:58;;;;;;;36.83;16.95;;;;;;;0.53;100.00;99750.13;5026250;28;20377;-66
2023/03/08 04:23:23;;;;;;;36.15;16.73;;;;;;;0.54;100.00;99748.41;5029409;28;20086;-66
2023/03/08 04:25:48;;;;;;;35.85;16.25;;;;;;;0.52;100.00;99744.13;5029886;28;20404;-66
2023/03/08 04:28:14;;;;;;;34.75;17.33;;;;;;;0.50;100.00;99740.59;5031776;28;20025;-66
2023/03/08 04:30:39;;;;;;;38.70;18.08;;;;;;;0.46;100.00;99738.69;5031129;28;20396;-66
2023/03/08 04:33:04;;;;;;;36.28;16.83;;;;;;;0.42;100.00;99735.94;5013759;28;20033;-66
2023/03/08 04:35:29;;;;;;;34.58;17.02;;;;;;;0.41;100.00;99729.94;5029754;28;20510;-66
2023/03/08 04:37:55;;;;;;;34.15;15.98;;;;;;;0.39;100.00;99726.44;5031519;28;20111;-66
2023/03/08 04:40:20;;;;;;;30.70;14.95;;;;;;;0.37;100.00;99728.03;5031624;28;20029;-66
2023/03/08 04:42:45;;;;;;;33.00;15.43;;;;;;;0.37;100.00;99722.91;5030789;28;20045;-66
2023/03/08 04:45:11;;;;;;;30.63;14.25;;;;;;;0.38;100.00;99718.66;5030322;28;20049;-66
2023/03/08 04:47:36;;;;;;;32.35;14.65;;;;;;;0.37;100.00;99707.53;5010392;28;20110;-66
2023/03/08 04:50:01;;;;;;;32.70;14.60;;;;;;;0.38;100.00;99705.84;5030636;28;20102;-66
2023/03/08 04:52:26;;;;;;;30.83;13.98;;;;;;;0.37;100.00;99707.53;5028486;28;20068;-66
2023/03/08 04:54:54;;;;;;;31.08;14.27;;;;;;;0.37;100.00;99702.41;5027673;28;20100;-66
2023/03/08 04:57:19;;;;;;;30.70;14.20;;;;;;;0.38;100.00;99701.63;5029931;28;20057;-66
2023/03/08 04:59:44;;;;;;;29.17;13.68;;;;;;;0.38;100.00;99699.06;5030272;28;20574;-66
2023/03/08 05:02:10;;;;;;;28.25;13.65;;;;;;;0.39;100.00;99687.09;5028510;28;20503;-66
2023/03/08 05:04:35;;;;;;;25.58;12.40;;;;;;;0.37;100.00;99681.91;5027269;28;20558;-66
2023/03/08 05:07:00;;;;;;;29.50;13.82;;;;;;;0.37;100.00;99675.94;5030447;28;20029;-66
2023/03/08 05:09:26;;;;;;;25.92;11.98;;;;;;;0.36;100.00;99669.03;5030195;28;20038;-66
2023/03/08 05:11:51;;;;;;;24.83;12.02;;;;;;;0.35;100.00;99670.72;5029715;28;20110;-66
2023/03/08 05:14:16;;;;;;;26.65;12.98;;;;;;;0.35;100.00;99660.47;5029719;28;20021;-66
2023/03/08 05:16:41;;;;;;;26.38;12.65;;;;;;;0.36;100.00;99663.91;5027588;28;20777;-66
2023/03/08 05:19:07;;;;;;;23.95;11.63;;;;;;;0.35;100.00;99663.03;5026031;28;20063;-66
2023/03/08 05:21:32;;;;;;;26.85;12.60;;;;;;;0.34;100.00;99651.03;5028380;28;20029;-66
2023/03/08 05:23:59;;;;;;;26.55;12.75;;;;;;;0.35;100.00;99647.66;5027798;28;20480;-66
2023/03/08 05:26:24;;;;;;;28.48;11.65;;;;;;;0.35;100.00;99642.56;5029593;28;20120;-66
2023/03/08 05:28:49;;;;;;;23.70;11.55;;;;;;;0.34;100.00;99645.91;5026986;28;20136;-66
2023/03/08 05:31:18;;;;;;;26.52;12.00;;;;;;;0.34;100.00;99640.78;5031696;28;20399;-66
2023/03/08 05:33:45;;;;;;;27.83;11.70;;;;;;;0.33;100.00;99634.78;5027635;28;20035;-66
2023/03/08 05:36:12;;;;;;;24.65;11.07;;;;;;;0.33;100.00;99627.13;5028993;28;20433;-66
2023/03/08 05:38:37;;;;;;;26.40;12.38;;;;;;;0.34;100.00;99618.59;5030396;28;20108;-66
2023/03/08 05:41:08;;;;;;;24.10;10.93;;;;;;;0.33;100.00;99614.31;5027687;28;20552;-66
2023/03/08 05:43:33;;;;;;;25.40;11.75;;;;;;;0.30;100.00;99606.44;5028865;28;20037;-66
2023/03/08 05:46:05;;;;;;;24.27;10.50;;;;;;;0.29;100.00;99602.16;5029156;28;20103;-66
2023/03/08 05:48:33;;;;;;;21.27;9.48;;;;;;;0.27;100.00;99595.22;5028179;28;20025;-66
2023/03/08 05:50:58;;;;;;;19.08;8.43;;;;;;;0.24;100.00;99595.06;5027466;28;20017;-66
2023/03/08 05:53:24;;;;;;;18.23;8.15;;;;;;;0.21;100.00;99587.25;5029179;28;20091;-66
2023/03/08 05:55:49;;;;;;;17.60;8.00;;;;;;;0.17;100.00;99587.13;5025733;28;20064;-66
2023/03/08 05:58:15;;;;;;;18.10;8.20;;;;;;;0.13;100.00;99577.53;5030584;28;20485;-66
2023/03/08 06:00:41;;;;;;;17.60;8.68;;;;;;;0.10;100.00;99572.28;5029472;28;20037;-66
2023/03/08 06:03:06;;;;;;;17.58;8.05;;;;;;;0.07;100.00;99567.00;5027389;28;20033;-66
2023/03/08 06:05:32;;;;;;;16.88;7.70;;;;;;;0.06;100.00;99562.72;5029071;28;20026;-67
2023/03/08 06:07:58;;;;;;;15.77;7.28;;;;;;;0.01;100.00;99561.63;5024136;28;20480;-66
2023/03/08 06:10:24;;;;;;;13.93;6.40;;;;;;;-0.04;100.00;99561.41;5024634;28;20033;-66
2023/03/08 06:12:50;;;;;;;16.05;7.38;;;;;;;-0.06;100.00;99562.16;5027899;28;20064;-66
2023/03/08 06:15:15;;;;;;;14.93;6.75;;;;;;;-0.08;100.00;99566.34;5029999;28;20021;-66
2023/03/08 06:17:41;;;;;;;14.20;6.55;;;;;;;-0.11;100.00;99567.06;5027621;28;20304;-66
2023/03/08 06:20:07;;;;;;;12.98;6.47;;;;;;;-0.11;100.00;99556.81;5029148;28;20155;-66
2023/03/08 06:22:33;;;;;;;15.80;7.28;;;;;;;-0.16;100.00;99560.84;5027514;28;20476;-67
2023/03/08 06:24:58;;;;;;;16.10;7.00;;;;;;;-0.16;100.00;99559.97;5028635;28;20071;-67
2023/03/08 06:27:23;;;;;;;15.95;6.88;;;;;;;-0.17;100.00;99559.13;5047533;28;20028;-66
2023/03/08 06:29:49;;;;;;;15.25;7.00;;;;;;;-0.18;100.00;99558.22;5031830;28;20025;-67
2023/03/08 06:32:15;;;;;;;14.82;6.65;;;;;;;-0.18;100.00;99555.66;5010740;28;20028;-66
2023/03/08 06:34:41;;;;;;;14.13;6.55;;;;;;;-0.18;100.00;99554.78;5029966;28;20097;-66
2023/03/08 06:37:06;;;;;;;14.50;6.63;;;;;;;-0.21;100.00;99552.97;5029964;28;20029;-66
2023/03/08 06:39:33;;;;;;;11.63;5.50;;;;;;;-0.23;100.00;99548.59;5029817;28;20033;-66
2023/03/08 06:42:01;;;;;;;10.75;5.53;;;;;;;-0.24;100.00;99542.59;5029045;28;20041;-67
2023/03/08 06:44:27;;;;;;;11.68;5.30;;;;;;;-0.28;100.00;99539.81;5028259;28;20400;-67
2023/03/08 06:46:52;;;;;;;12.27;5.80;;;;;;;-0.27;100.00;99544.16;5028964;28;20551;-67
2023/03/08 06:49:17;;;;;;;12.10;5.45;;;;;;;-0.29;100.00;99538.06;5029742;28;20041;-66
2023/03/08 06:51:42;;;;;;;10.63;5.05;;;;;;;-0.30;100.00;99541.44;5028558;28;20569;-67
2023/03/08 06:54:08;;;;;;;13.80;5.63;;;;;;;-0.31;100.00;99550.78;5026924;28;20112;-67
2023/03/08 06:56:33;;;;;;;11.00;5.80;;;;;;;-0.31;100.00;99550.78;5028365;28;20033;-67
2023/03/08 06:58:58;;;;;;;13.27;5.43;;;;;;;-0.33;100.00;99547.28;5029622;28;20553;-67
2023/03/08 07:01:24;;;;;;;10.55;4.50;;;;;;;-0.33;100.00;99547.28;5030050;28;20060;-67
2023/03/08 07:03:50;;;;;;;13.90;5.93;;;;;;;-0.33;100.00;99554.97;5028739;28;20022;-67
2023/03/08 07:06:16;;;;;;;12.35;5.75;;;;;;;-0.35;100.00;99548.88;5028883;28;20037;-67
2023/03/08 07:08:41;;;;;;;12.35;5.90;;;;;;;-0.34;100.00;99547.22;5027777;28;20052;-67
2023/03/08 07:11:08;;;;;;;11.52;5.40;;;;;;;-0.36;100.00;99548.03;5028647;28;20108;-67
2023/03/08 07:13:34;;;;;;;14.13;4.93;;;;;;;-0.36;100.00;99537.78;5029275;28;20033;-67
2023/03/08 07:16:05;;;;;;;10.23;4.63;;;;;;;-0.37;100.00;99524.91;5028195;28;20480;-67
2023/03/08 07:18:30;;;;;;;11.13;4.38;;;;;;;-0.36;100.00;99524.13;5028680;28;20553;-67
2023/03/08 07:20:56;;;;;;;8.30;4.05;;;;;;;-0.34;100.00;99525.06;5027967;28;20037;-67
2023/03/08 07:23:22;;;;;;;8.27;3.90;;;;;;;-0.36;100.00;99527.56;5032137;28;20029;-67
2023/03/08 07:25:47;;;;;;;7.95;3.55;;;;;;;-0.36;100.00;99526.69;5032114;28;20109;-68
2023/03/08 07:28:12;;;;;;;6.90;3.30;;;;;;;-0.37;100.00;99524.91;5031592;28;20124;-67
2023/03/08 07:30:38;;;;;;;6.75;3.28;;;;;;;-0.37;100.00;99514.69;5031470;28;20120;-67
2023/03/08 07:33:03;;;;;;;8.55;3.72;;;;;;;-0.38;100.00;99515.47;5030603;28;20026;-67
2023/03/08 07:35:28;;;;;;;8.68;3.63;;;;;;;-0.38;100.00;99515.47;5030238;28;20121;-67
2023/03/08 07:37:54;;;;;;;8.27;3.63;;;;;;;-0.38;100.00;99508.69;5031890;28;20503;-68
2023/03/08 07:40:19;;;;;;;9.75;3.80;;;;;;;-0.36;100.00;99501.09;5030347;28;20029;-67
2023/03/08 07:42:44;;;;;;;7.90;3.60;;;;;;;-0.37;100.00;99499.34;5028706;28;20044;-67
2023/03/08 07:45:11;;;;;;;7.85;3.10;;;;;;;-0.38;100.00;99498.47;5030499;28;20041;-67
2023/03/08 07:47:36;;;;;;;7.55;3.60;;;;;;;-0.37;100.00;99494.22;5030683;28;20045;-67
2023/03/08 07:50:02;;;;;;;8.60;3.53;;;;;;;-0.36;100.00;99493.41;5031659;28;20021;-67
2023/03/08 07:52:29;;;;;;;8.13;3.65;;;;;;;-0.36;100.00;99490.84;5031323;28;20151;-68
2023/03/08 07:54:54;;;;;;;7.97;3.75;;;;;;;-0.35;100.00;99492.59;5030255;28;20052;-68
2023/03/08 07:57:20;;;;;;;8.10;3.70;;;;;;;-0.35;100.00;99487.47;5030208;28;20492;-67
2023/03/08 07:59:45;;;;;;;9.50;3.80;;;;;;;-0.32;100.00;99496.97;5031364;28;20041;-67
2023/03/08 08:02:12;;;;;;;8.55;4.63;;;;;;;-0.30;100.00;99480.88;5028633;28;20026;-67
2023/03/08 08:04:37;;;;;;;8.70;4.13;;;;;;;-0.28;100.00;99473.28;5030075;28;20183;-68
2023/03/08 08:07:03;;;;;;;10.80;4.60;;;;;;;-0.27;100.00;99475.91;5030851;28;20480;-68
2023/03/08 08:09:28;;;;;;;11.35;5.55;;;;;;;-0.24;100.00;99481.16;5032132;28;20060;-67
2023/03/08 08:11:53;;;;;;;12.23;6.05;;;;;;;-0.24;100.00;99481.16;5026319;28;20091;-68
2023/03/08 08:14:19;;;;;;;11.93;5.55;;;;;;;-0.24;100.00;99476.03;5029842;28;20582;-68
2023/03/08 08:16:44;;;;;;;11.85;5.53;;;;;;;-0.21;100.00;99475.31;5030800;28;20033;-68
2023/03/08 08:19:11;;;;;;;14.70;6.35;;;;;;;-0.20;100.00;99472.81;5030668;28;20511;-68
2023/03/08 08:21:36;;;;;;;12.77;5.95;;;;;;;-0.21;100.00;99471.03;5029674;28;20082;-68
2023/03/08 08:24:02;;;;;;;13.93;5.72;;;;;;;-0.20;100.00;99456.59;5031694;28;20513;-67
2023/03/08 08:26:27;;;;;;;12.60;5.78;;;;;;;-0.20;100.00;99456.59;5030229;28;20108;-68
2023/03/08 08:28:53;;;;;;;13.32;6.63;;;;;;;-0.22;100.00;99443.72;5040741;28;20029;-68
2023/03/08 08:31:24;;;;;;;14.00;6.35;;;;;;;-0.24;100.00;99450.44;5050666;28;20040;-68
2023/03/08 08:33:49;;;;;;;12.32;5.40;;;;;;;-0.26;100.00;99436.72;5049381;28;20021;-68
2023/03/08 08:36:17;;;;;;;11.32;5.28;;;;;;;-0.28;100.00;99443.44;5031605;28;20032;-68
2023/03/08 08:38:44;;;;;;;8.77;4.15;;;;;;;-0.29;100.00;99439.13;5031622;28;20030;-67
2023/03/08 08:41:11;;;;;;;9.32;4.03;;;;;;;-0.31;100.00;99416.84;5030411;28;20048;-68
2023/03/08 08:43:36;;;;;;;10.13;4.43;;;;;;;-0.34;100.00;99422.69;5029290;28;20082;-68
2023/03/08 08:46:03;;;;;;;11.48;5.10;;;;;;;-0.32;100.00;99418.50;5028568;28;20045;-68
2023/03/08 08:48:31;;;;;;;10.48;4.70;;;;;;;-0.31;100.00;99422.81;5029668;28;20562;-68
2023/03/08 08:50:57;;;;;;;10.25;4.80;;;;;;;-0.29;100.00;99421.22;5030563;28;20026;-67
2023/03/08 08:53:23;;;;;;;7.82;4.20;;;;;;;-0.31;100.00;99421.97;5030506;28;20033;-68
2023/03/08 08:55:48;;;;;;;8.25;4.35;;;;;;;-0.30;100.00;99434.81;5030073;28;20029;-67
2023/03/08 08:58:14;;;;;;;10.65;4.25;;;;;;;-0.27;100.00;99440.06;5026961;28;20048;-68
2023/03/08 09:00:39;;;;;;;10.38;4.55;;;;;;;-0.22;100.00;99448.84;5028799;28;20083;-68
2023/03/08 09:03:05;;;;;;;10.55;4.70;;;;;;;-0.18;100.00;99454.94;5028969;28;20029;-68
2023/03/08 09:05:32;;;;;;;13.02;5.78;;;;;;;-0.16;100.00;99462.69;5030031;28;20064;-68
2023/03/08 09:08:00;;;;;;;10.95;5.03;;;;;;;-0.17;100.00;99459.28;5028978;28;20650;-68
2023/03/08 09:10:31;;;;;;;11.95;5.70;;;;;;;-0.19;100.00;99458.31;5028874;28;20017;-68
2023/03/08 09:12:57;;;;;;;10.57;4.53;;;;;;;-0.19;100.00;99454.09;5028991;28;20087;-68
2023/03/08 09:15:23;;;;;;;11.63;5.47;;;;;;;-0.19;100.00;99441.28;5028123;28;20112;-68
2023/03/08 09:17:49;;;;;;;9.43;4.70;;;;;;;-0.16;100.00;99420.03;5028867;28;20116;-67
2023/03/08 09:20:15;;;;;;;9.05;4.38;;;;;;;-0.14;100.00;99415.03;5030473;28;20029;-68
2023/03/08 09:22:40;;;;;;;10.98;5.03;;;;;;;-0.16;100.00;99394.44;5029988;28;20034;-68
2023/03/08 09:25:06;;;;;;;11.90;6.22;;;;;;;-0.16;100.00;99388.47;5029867;28;20028;-67
2023/03/08 09:27:32;;;;;;;12.20;5.60;;;;;;;-0.16;100.00;99389.31;5029739;28;20029;-67
2023/03/08 09:29:57;;;;;;;10.27;5.13;;;;;;;-0.15;100.00;99379.97;5009604;28;20082;-67
2023/03/08 09:32:23;;;;;;;9.85;5.13;;;;;;;-0.14;100.00;99368.94;5028537;28;20021;-67
2023/03/08 09:34:50;;;;;;;9.73;4.97;;;;;;;-0.13;100.00;99373.22;5029572;28;20547;-67
2023/03/08 09:37:15;;;;;;;9.63;4.55;;;;;;;-0.12;100.00;99372.44;5006113;28;20030;-67
2023/03/08 09:39:40;;;;;;;9.10;4.15;;;;;;;-0.10;100.00;99369.13;5030544;28;20018;-67
2023/03/08 09:42:19;;;;;;;9.90;4.78;;;;;;;-0.08;100.00;99366.63;5025868;28;20470;-67
2023/03/08 09:45:18;;;;;;;10.38;4.70;;;;;;;-0.03;100.00;99362.56;4996533;28;20064;-67
2023/03/08 09:48:03;;;;;;;9.15;4.97;;;;;;;0.02;100.00;99358.53;5009514;28;20030;-67
2023/03/08 09:50:51;;;;;;;11.35;6.20;;;;;;;0.09;100.00;99360.53;5007362;28;20030;-68
2023/03/08 09:53:34;;;;;;;13.55;7.25;;;;;;;0.14;100.00;99351.31;5007102;28;20621;-68
2023/03/08 09:56:28;;;;;;;15.60;8.20;;;;;;;0.15;100.00;99358.22;5009605;28;20025;-68
2023/03/08 09:59:12;;;;;;;16.13;8.20;;;;;;;0.21;100.00;99359.28;5010416;28;20045;-67
2023/03/08 10:01:54;;;;;;;14.18;7.75;;;;;;;0.28;100.00;99351.03;5008527;28;20089;-68
2023/03/08 10:04:42;;;;;;;15.65;8.65;;;;;;;0.39;100.00;99334.41;5008712;28;20045;-67
2023/03/08 10:07:23;;;;;;;17.27;9.13;;;;;;;0.47;100.00;99334.72;5009102;28;20030;-67
2023/03/08 10:10:05;;;;;;;18.55;9.55;;;;;;;0.54;100.00;99340.94;5009342;28;20116;-67
2023/03/08 10:13:09;;;;;;;16.17;9.05;;;;;;;0.62;100.00;99349.81;5006148;28;20526;-67
2023/03/08 10:15:41;;;;;;;18.08;8.43;;;;;;;0.60;100.00;99352.31;4991872;28;20045;-67
2023/03/08 10:18:19;;;;;;;18.90;9.85;;;;;;;0.62;100.00;99360.94;5007848;28;20104;-68
2023/03/08 10:20:45;;;;;;;21.08;10.88;;;;;;;0.66;100.00;99351.69;5008695;28;20113;-68
2023/03/08 10:23:17;;;;;;;19.80;10.70;;;;;;;0.65;100.00;99349.91;5009946;28;20061;-68
2023/03/08 10:25:43;;;;;;;21.88;11.48;;;;;;;0.66;100.00;99351.69;5008433;28;20553;-68
2023/03/08 10:28:17;;;;;;;26.48;12.48;;;;;;;0.67;100.00;99346.59;5007095;28;20036;-68
2023/03/08 10:30:51;;;;;;;27.73;12.55;;;;;;;0.69;100.00;99328.72;5010882;28;20405;-68
2023/03/08 10:33:19;;;;;;;28.63;12.93;;;;;;;0.71;100.00;99329.69;5014697;28;20061;-67
2023/03/08 10:36:02;;;;;;;26.48;13.05;;;;;;;0.69;100.00;99344.09;5009490;28;20146;-68
2023/03/08 10:38:31;;;;;;;27.70;12.60;;;;;;;0.70;100.00;99343.28;5008206;28;20040;-68
2023/03/08 10:41:02;;;;;;;27.50;13.18;;;;;;;0.70;100.00;99343.28;5008452;28;20522;-68
2023/03/08 10:43:31;;;;;;;27.75;13.20;;;;;;;0.67;100.00;99326.09;5005602;28;20041;-68
2023/03/08 10:46:03;;;;;;;29.08;13.80;;;;;;;0.66;100.00;99308.09;5024000;28;20049;-68
2023/03/08 10:48:29;;;;;;;25.75;12.85;;;;;;;0.71;100.00;99313.41;5026802;28;20084;-67
2023/03/08 10:50:59;;;;;;;26.45;12.88;;;;;;;0.73;100.00;99312.66;5027853;28;20033;-68
2023/03/08 10:53:28;;;;;;;26.25;13.77;;;;;;;0.74;100.00;99311.84;5027551;28;20140;-68
2023/03/08 10:55:53;;;;;;;25.08;13.18;;;;;;;0.71;100.00;99309.16;5012678;28;20420;-68
2023/03/08 10:58:30;;;;;;;26.30;13.10;;;;;;;0.68;100.00;99309.03;5031482;28;20112;-68
2023/03/08 11:00:57;;;;;;;24.73;12.68;;;;;;;0.69;100.00;99310.78;5013808;28;20120;-68
2023/03/08 11:03:24;;;;;;;24.48;12.82;;;;;;;0.72;100.00;99320.28;5028999;28;20028;-68
2023/03/08 11:06:00;;;;;;;25.42;13.32;;;;;;;0.70;100.00;99340.72;5031715;28;20057;-67
2023/03/08 11:08:36;;;;;;;24.48;12.32;;;;;;;0.70;100.00;99327.91;5030303;28;20057;-67
2023/03/08 11:11:10;;;;;;;23.83;12.68;;;;;;;0.73;100.00;99332.28;5025547;28;20039;-67
2023/03/08 11:13:40;;;;;;;26.30;13.13;;;;;;;0.74;100.00;99332.34;5029524;28;20026;-67
2023/03/08 11:16:14;;;;;;;26.52;13.77;;;;;;;0.75;100.00;99340.91;5031321;28;20365;-67
2023/03/08 11:19:02;;;;;;;24.85;12.68;;;;;;;0.71;100.00;99323.66;5030455;28;20110;-67
2023/03/08 11:21:48;;;;;;;23.13;11.95;;;;;;;0.68;100.00;99326.97;5025859;28;20045;-68